sensor_id;sensor_type;location;lat;lon;timestamp;temperature;humidity
74384;DHT22;62824;52.994;-3.936;2023-04-03T00:02:24;6.80;93.70
74384;DHT22;62824;52.994;-3.936;2023-04-03T00:04:50;6.80;94.00
74384;DHT22;62824;52.994;-3.936;2023-04-03T00:07:15;6.80;93.50
74384;DHT22;62824;52.994;-3.936;2023-04-03T00:09:41;6.80;94.10
74384;DHT22;62824;52.994;-3.936;2023-04-03T00:12:07;6.80;94.50
74384;DHT22;62824;52.994;-3.936;2023-04-03T00:14:32;6.80;94.90
74384;DHT22;62824;52.994;-3.936;2023-04-03T00:16:58;6.70;95.40
74384;DHT22;62824;52.994;-3.936;2023-04-03T00:19:24;6.70;94.90
74384;DHT22;62824;52.994;-3.936;2023-04-03T00:21:50;6.70;94.30
74384;DHT22;62824;52.994;-3.936;2023-04-03T00:24:16;6.70;93.40
74384;DHT22;62824;52.994;-3.936;2023-04-03T00:26:41;6.70;93.40
74384;DHT22;62824;52.994;-3.936;2023-04-03T00:29:07;6.70;94.00
74384;DHT22;62824;52.994;-3.936;2023-04-03T00:31:33;6.70;93.90
74384;DHT22;62824;52.994;-3.936;2023-04-03T00:33:59;6.70;94.30
74384;DHT22;62824;52.994;-3.936;2023-04-03T00:36:24;6.60;94.60
74384;DHT22;62824;52.994;-3.936;2023-04-03T00:42:13;6.70;95.00
74384;DHT22;62824;52.994;-3.936;2023-04-03T00:47:05;6.60;94.90
74384;DHT22;62824;52.994;-3.936;2023-04-03T00:49:32;6.60;94.10
74384;DHT22;62824;52.994;-3.936;2023-04-03T00:51:59;6.50;94.60
74384;DHT22;62824;52.994;-3.936;2023-04-03T00:54:25;6.50;95.10
74384;DHT22;62824;52.994;-3.936;2023-04-03T00:56:53;6.40;95.30
74384;DHT22;62824;52.994;-3.936;2023-04-03T00:59:41;6.40;95.10
74384;DHT22;62824;52.994;-3.936;2023-04-03T01:02:09;6.40;95.10
74384;DHT22;62824;52.994;-3.936;2023-04-03T01:04:41;6.50;95.40
74384;DHT22;62824;52.994;-3.936;2023-04-03T01:07:18;6.40;96.20
74384;DHT22;62824;52.994;-3.936;2023-04-03T01:09:45;6.40;96.50
74384;DHT22;62824;52.994;-3.936;2023-04-03T01:12:34;6.40;97.00
74384;DHT22;62824;52.994;-3.936;2023-04-03T01:15:08;6.30;97.60
74384;DHT22;62824;52.994;-3.936;2023-04-03T01:28:06;5.80;99.90
74384;DHT22;62824;52.994;-3.936;2023-04-03T01:34:08;5.70;99.90
74384;DHT22;62824;52.994;-3.936;2023-04-03T01:36:33;5.70;99.90
74384;DHT22;62824;52.994;-3.936;2023-04-03T01:38:59;5.60;99.90
74384;DHT22;62824;52.994;-3.936;2023-04-03T01:41:26;5.50;99.90
74384;DHT22;62824;52.994;-3.936;2023-04-03T01:43:52;5.40;99.90
74384;DHT22;62824;52.994;-3.936;2023-04-03T01:46:18;5.40;99.90
74384;DHT22;62824;52.994;-3.936;2023-04-03T01:48:45;5.30;99.90
74384;DHT22;62824;52.994;-3.936;2023-04-03T01:51:11;5.30;99.90
74384;DHT22;62824;52.994;-3.936;2023-04-03T01:53:37;5.20;99.90
74384;DHT22;62824;52.994;-3.936;2023-04-03T01:56:03;5.30;99.90
74384;DHT22;62824;52.994;-3.936;2023-04-03T01:58:29;5.30;99.90
74384;DHT22;62824;52.994;-3.936;2023-04-03T02:00:55;5.30;99.90
74384;DHT22;62824;52.994;-3.936;2023-04-03T02:03:21;5.30;99.90
74384;DHT22;62824;52.994;-3.936;2023-04-03T02:05:47;5.20;99.90
74384;DHT22;62824;52.994;-3.936;2023-04-03T02:08:13;5.20;99.90
74384;DHT22;62824;52.994;-3.936;2023-04-03T02:10:39;5.10;99.90
74384;DHT22;62824;52.994;-3.936;2023-04-03T02:13:05;5.10;99.90
74384;DHT22;62824;52.994;-3.936;2023-04-03T02:15:31;5.00;99.90
74384;DHT22;62824;52.994;-3.936;2023-04-03T02:17:56;5.00;99.90
74384;DHT22;62824;52.994;-3.936;2023-04-03T02:20:22;4.90;99.90
74384;DHT22;62824;52.994;-3.936;2023-04-03T02:22:48;5.00;99.90
74384;DHT22;62824;52.994;-3.936;2023-04-03T02:25:14;5.00;99.90
74384;DHT22;62824;52.994;-3.936;2023-04-03T02:27:40;5.00;99.90
74384;DHT22;62824;52.994;-3.936;2023-04-03T02:30:06;5.00;99.90
74384;DHT22;62824;52.994;-3.936;2023-04-03T02:32:34;4.90;99.90
74384;DHT22;62824;52.994;-3.936;2023-04-03T02:35:00;5.00;99.90
74384;DHT22;62824;52.994;-3.936;2023-04-03T02:37:26;4.90;99.90
74384;DHT22;62824;52.994;-3.936;2023-04-03T02:39:52;4.90;99.90
74384;DHT22;62824;52.994;-3.936;2023-04-03T02:42:17;4.80;99.90
74384;DHT22;62824;52.994;-3.936;2023-04-03T02:44:43;4.70;99.90
74384;DHT22;62824;52.994;-3.936;2023-04-03T02:47:10;4.80;99.90
74384;DHT22;62824;52.994;-3.936;2023-04-03T02:52:57;4.80;99.90
74384;DHT22;62824;52.994;-3.936;2023-04-03T02:55:23;4.70;99.90
74384;DHT22;62824;52.994;-3.936;2023-04-03T02:57:49;4.60;99.90
74384;DHT22;62824;52.994;-3.936;2023-04-03T03:00:15;4.50;99.90
74384;DHT22;62824;52.994;-3.936;2023-04-03T03:02:41;4.50;99.90
74384;DHT22;62824;52.994;-3.936;2023-04-03T03:05:07;4.50;99.90
74384;DHT22;62824;52.994;-3.936;2023-04-03T03:07:33;4.50;99.90
74384;DHT22;62824;52.994;-3.936;2023-04-03T03:09:59;4.50;99.90
74384;DHT22;62824;52.994;-3.936;2023-04-03T03:12:25;4.60;99.90
74384;DHT22;62824;52.994;-3.936;2023-04-03T03:14:51;4.70;99.90
74384;DHT22;62824;52.994;-3.936;2023-04-03T03:17:17;4.60;99.90
74384;DHT22;62824;52.994;-3.936;2023-04-03T03:19:43;4.60;99.90
74384;DHT22;62824;52.994;-3.936;2023-04-03T03:22:11;4.60;99.90
74384;DHT22;62824;52.994;-3.936;2023-04-03T03:24:37;4.60;99.90
74384;DHT22;62824;52.994;-3.936;2023-04-03T03:27:02;4.60;99.90
74384;DHT22;62824;52.994;-3.936;2023-04-03T03:32:44;4.70;99.90
74384;DHT22;62824;52.994;-3.936;2023-04-03T03:35:10;4.60;99.90
74384;DHT22;62824;52.994;-3.936;2023-04-03T03:37:36;4.60;99.90
74384;DHT22;62824;52.994;-3.936;2023-04-03T03:40:02;4.60;99.90
74384;DHT22;62824;52.994;-3.936;2023-04-03T03:42:28;4.60;99.90
74384;DHT22;62824;52.994;-3.936;2023-04-03T03:44:53;4.60;99.90
74384;DHT22;62824;52.994;-3.936;2023-04-03T03:47:19;4.60;99.90
74384;DHT22;62824;52.994;-3.936;2023-04-03T03:49:45;4.70;99.90
74384;DHT22;62824;52.994;-3.936;2023-04-03T03:52:11;4.60;99.90
74384;DHT22;62824;52.994;-3.936;2023-04-03T03:54:37;4.70;99.90
74384;DHT22;62824;52.994;-3.936;2023-04-03T03:57:03;4.70;99.90
74384;DHT22;62824;52.994;-3.936;2023-04-03T03:59:29;4.60;99.90
74384;DHT22;62824;52.994;-3.936;2023-04-03T04:01:55;4.60;99.90
74384;DHT22;62824;52.994;-3.936;2023-04-03T04:04:21;4.60;99.90
74384;DHT22;62824;52.994;-3.936;2023-04-03T04:06:47;4.60;99.90
74384;DHT22;62824;52.994;-3.936;2023-04-03T04:09:13;4.60;99.90
74384;DHT22;62824;52.994;-3.936;2023-04-03T04:11:38;4.70;99.90
74384;DHT22;62824;52.994;-3.936;2023-04-03T04:14:06;4.80;99.90
74384;DHT22;62824;52.994;-3.936;2023-04-03T04:16:32;4.80;99.90
74384;DHT22;62824;52.994;-3.936;2023-04-03T04:18:58;4.80;99.90
74384;DHT22;62824;52.994;-3.936;2023-04-03T04:21:24;4.90;99.90
74384;DHT22;62824;52.994;-3.936;2023-04-03T04:23:49;4.80;99.90
74384;DHT22;62824;52.994;-3.936;2023-04-03T04:26:15;4.80;99.90
74384;DHT22;62824;52.994;-3.936;2023-04-03T04:28:41;4.80;99.90
74384;DHT22;62824;52.994;-3.936;2023-04-03T04:31:07;4.80;99.90
74384;DHT22;62824;52.994;-3.936;2023-04-03T04:33:32;4.70;99.90
74384;DHT22;62824;52.994;-3.936;2023-04-03T04:35:58;4.80;99.90
74384;DHT22;62824;52.994;-3.936;2023-04-03T04:38:24;4.70;99.90
74384;DHT22;62824;52.994;-3.936;2023-04-03T04:40:50;4.50;99.90
74384;DHT22;62824;52.994;-3.936;2023-04-03T04:43:16;4.50;99.90
74384;DHT22;62824;52.994;-3.936;2023-04-03T04:45:42;4.40;99.90
74384;DHT22;62824;52.994;-3.936;2023-04-03T04:48:08;4.20;99.90
74384;DHT22;62824;52.994;-3.936;2023-04-03T04:53:44;4.30;99.90
74384;DHT22;62824;52.994;-3.936;2023-04-03T04:56:10;4.40;99.90
74384;DHT22;62824;52.994;-3.936;2023-04-03T04:58:36;4.40;99.90
74384;DHT22;62824;52.994;-3.936;2023-04-03T05:01:07;4.50;99.90
74384;DHT22;62824;52.994;-3.936;2023-04-03T05:03:33;4.50;99.90
74384;DHT22;62824;52.994;-3.936;2023-04-03T05:06:00;4.50;99.90
74384;DHT22;62824;52.994;-3.936;2023-04-03T05:08:26;4.50;99.90
74384;DHT22;62824;52.994;-3.936;2023-04-03T05:13:58;4.40;99.90
74384;DHT22;62824;52.994;-3.936;2023-04-03T05:16:24;4.30;99.90
74384;DHT22;62824;52.994;-3.936;2023-04-03T05:18:50;4.20;99.90
74384;DHT22;62824;52.994;-3.936;2023-04-03T05:21:16;4.20;99.90
74384;DHT22;62824;52.994;-3.936;2023-04-03T05:23:43;4.20;99.90
74384;DHT22;62824;52.994;-3.936;2023-04-03T05:26:09;4.20;99.90
74384;DHT22;62824;52.994;-3.936;2023-04-03T05:28:35;4.00;99.90
74384;DHT22;62824;52.994;-3.936;2023-04-03T05:31:01;4.00;99.90
74384;DHT22;62824;52.994;-3.936;2023-04-03T05:33:27;4.00;99.90
74384;DHT22;62824;52.994;-3.936;2023-04-03T05:35:54;4.10;99.90
74384;DHT22;62824;52.994;-3.936;2023-04-03T05:38:20;4.10;99.90
74384;DHT22;62824;52.994;-3.936;2023-04-03T05:40:45;4.10;99.90
74384;DHT22;62824;52.994;-3.936;2023-04-03T05:43:37;4.00;99.90
74384;DHT22;62824;52.994;-3.936;2023-04-03T05:46:08;4.00;99.90
74384;DHT22;62824;52.994;-3.936;2023-04-03T05:48:35;4.00;99.90
74384;DHT22;62824;52.994;-3.936;2023-04-03T05:51:00;3.90;99.90
74384;DHT22;62824;52.994;-3.936;2023-04-03T05:53:32;3.90;99.90
74384;DHT22;62824;52.994;-3.936;2023-04-03T05:55:58;3.90;99.90
74384;DHT22;62824;52.994;-3.936;2023-04-03T05:58:24;3.90;99.90
74384;DHT22;62824;52.994;-3.936;2023-04-03T06:00:50;3.90;99.90
74384;DHT22;62824;52.994;-3.936;2023-04-03T06:06:57;4.00;99.90
74384;DHT22;62824;52.994;-3.936;2023-04-03T06:09:25;4.00;99.90
74384;DHT22;62824;52.994;-3.936;2023-04-03T06:11:52;4.00;99.90
74384;DHT22;62824;52.994;-3.936;2023-04-03T06:14:18;3.90;99.90
74384;DHT22;62824;52.994;-3.936;2023-04-03T06:16:44;3.80;99.90
74384;DHT22;62824;52.994;-3.936;2023-04-03T06:19:11;3.80;99.90
74384;DHT22;62824;52.994;-3.936;2023-04-03T06:21:37;3.80;99.90
74384;DHT22;62824;52.994;-3.936;2023-04-03T06:24:04;3.80;99.90
74384;DHT22;62824;52.994;-3.936;2023-04-03T06:26:31;3.80;99.90
74384;DHT22;62824;52.994;-3.936;2023-04-03T06:28:57;3.80;99.90
74384;DHT22;62824;52.994;-3.936;2023-04-03T06:31:23;3.70;99.90
74384;DHT22;62824;52.994;-3.936;2023-04-03T06:33:49;3.60;99.90
74384;DHT22;62824;52.994;-3.936;2023-04-03T06:36:15;3.60;99.90
74384;DHT22;62824;52.994;-3.936;2023-04-03T06:38:45;3.60;99.90
74384;DHT22;62824;52.994;-3.936;2023-04-03T06:41:11;3.60;99.90
74384;DHT22;62824;52.994;-3.936;2023-04-03T06:43:37;3.80;99.90
74384;DHT22;62824;52.994;-3.936;2023-04-03T06:46:03;3.80;99.90
74384;DHT22;62824;52.994;-3.936;2023-04-03T06:48:29;3.80;99.90
74384;DHT22;62824;52.994;-3.936;2023-04-03T06:50:55;3.80;99.90
74384;DHT22;62824;52.994;-3.936;2023-04-03T06:53:21;3.60;99.90
74384;DHT22;62824;52.994;-3.936;2023-04-03T06:55:47;3.60;99.90
74384;DHT22;62824;52.994;-3.936;2023-04-03T06:58:13;3.70;99.90
74384;DHT22;62824;52.994;-3.936;2023-04-03T07:00:41;3.80;99.90
74384;DHT22;62824;52.994;-3.936;2023-04-03T07:06:48;4.60;99.90
74384;DHT22;62824;52.994;-3.936;2023-04-03T07:09:14;5.90;99.90
74384;DHT22;62824;52.994;-3.936;2023-04-03T07:11:40;6.60;99.20
74384;DHT22;62824;52.994;-3.936;2023-04-03T07:14:06;7.20;79.00
74384;DHT22;62824;52.994;-3.936;2023-04-03T07:16:34;7.70;69.20
74384;DHT22;62824;52.994;-3.936;2023-04-03T07:19:00;8.20;62.60
74384;DHT22;62824;52.994;-3.936;2023-04-03T07:21:52;8.80;58.30
74384;DHT22;62824;52.994;-3.936;2023-04-03T07:24:18;9.30;51.90
74384;DHT22;62824;52.994;-3.936;2023-04-03T07:26:44;9.40;47.90
74384;DHT22;62824;52.994;-3.936;2023-04-03T07:29:10;9.60;45.70
74384;DHT22;62824;52.994;-3.936;2023-04-03T07:31:36;9.90;45.10
74384;DHT22;62824;52.994;-3.936;2023-04-03T07:34:04;10.40;43.10
74384;DHT22;62824;52.994;-3.936;2023-04-03T07:36:29;10.70;40.70
74384;DHT22;62824;52.994;-3.936;2023-04-03T07:38:58;11.00;39.90
74384;DHT22;62824;52.994;-3.936;2023-04-03T07:41:24;11.30;37.70
74384;DHT22;62824;52.994;-3.936;2023-04-03T07:43:50;10.80;37.00
74384;DHT22;62824;52.994;-3.936;2023-04-03T07:46:16;10.40;40.10
74384;DHT22;62824;52.994;-3.936;2023-04-03T07:48:43;11.10;39.50
74384;DHT22;62824;52.994;-3.936;2023-04-03T07:51:09;11.70;37.40
74384;DHT22;62824;52.994;-3.936;2023-04-03T07:53:36;12.20;36.50
74384;DHT22;62824;52.994;-3.936;2023-04-03T07:56:02;12.40;33.10
74384;DHT22;62824;52.994;-3.936;2023-04-03T07:58:28;11.90;32.00
74384;DHT22;62824;52.994;-3.936;2023-04-03T08:00:54;11.40;33.10
74384;DHT22;62824;52.994;-3.936;2023-04-03T08:03:20;11.50;33.10
74384;DHT22;62824;52.994;-3.936;2023-04-03T08:09:03;12.30;32.50
74384;DHT22;62824;52.994;-3.936;2023-04-03T08:11:29;13.10;30.00
74384;DHT22;62824;52.994;-3.936;2023-04-03T08:13:56;13.70;28.60
74384;DHT22;62824;52.994;-3.936;2023-04-03T08:16:24;13.90;27.20
74384;DHT22;62824;52.994;-3.936;2023-04-03T08:18:53;14.10;27.30
74384;DHT22;62824;52.994;-3.936;2023-04-03T08:21:19;14.40;26.70
74384;DHT22;62824;52.994;-3.936;2023-04-03T08:23:49;14.60;26.40
74384;DHT22;62824;52.994;-3.936;2023-04-03T08:26:17;14.60;25.30
74384;DHT22;62824;52.994;-3.936;2023-04-03T08:28:44;14.30;25.50
74384;DHT22;62824;52.994;-3.936;2023-04-03T08:31:13;14.50;26.10
74384;DHT22;62824;52.994;-3.936;2023-04-03T08:33:39;15.10;25.50
74384;DHT22;62824;52.994;-3.936;2023-04-03T08:36:07;15.40;24.00
74384;DHT22;62824;52.994;-3.936;2023-04-03T08:38:34;15.70;23.80
74384;DHT22;62824;52.994;-3.936;2023-04-03T08:41:11;15.90;23.60
74384;DHT22;62824;52.994;-3.936;2023-04-03T08:49:35;15.20;24.20
74384;DHT22;62824;52.994;-3.936;2023-04-03T08:52:11;14.40;26.10
74384;DHT22;62824;52.994;-3.936;2023-04-03T08:54:58;14.00;26.80
74384;DHT22;62824;52.994;-3.936;2023-04-03T08:57:33;13.30;27.90
74384;DHT22;62824;52.994;-3.936;2023-04-03T09:02:46;13.00;29.10
74384;DHT22;62824;52.994;-3.936;2023-04-03T09:05:18;12.70;30.70
74384;DHT22;62824;52.994;-3.936;2023-04-03T09:07:59;12.70;30.60
74384;DHT22;62824;52.994;-3.936;2023-04-03T09:10:29;12.90;30.30
74384;DHT22;62824;52.994;-3.936;2023-04-03T09:13:26;12.90;30.20
74384;DHT22;62824;52.994;-3.936;2023-04-03T09:15:49;13.10;29.70
74384;DHT22;62824;52.994;-3.936;2023-04-03T09:18:30;12.90;29.70
74384;DHT22;62824;52.994;-3.936;2023-04-03T09:21:19;12.90;29.80
74384;DHT22;62824;52.994;-3.936;2023-04-03T09:23:50;12.80;30.00
74384;DHT22;62824;52.994;-3.936;2023-04-03T09:28:53;13.00;30.30
74384;DHT22;62824;52.994;-3.936;2023-04-03T09:31:24;13.10;30.00
74384;DHT22;62824;52.994;-3.936;2023-04-03T09:33:53;13.10;30.80
74384;DHT22;62824;52.994;-3.936;2023-04-03T09:36:54;13.30;30.10
74384;DHT22;62824;52.994;-3.936;2023-04-03T09:39:28;13.50;30.60
74384;DHT22;62824;52.994;-3.936;2023-04-03T09:42:14;13.40;29.80
74384;DHT22;62824;52.994;-3.936;2023-04-03T09:44:42;13.60;29.90
74384;DHT22;62824;52.994;-3.936;2023-04-03T09:50:19;14.20;28.00
74384;DHT22;62824;52.994;-3.936;2023-04-03T09:52:47;14.00;27.70
74384;DHT22;62824;52.994;-3.936;2023-04-03T09:55:19;14.60;28.00
74384;DHT22;62824;52.994;-3.936;2023-04-03T09:57:47;14.60;27.20
74384;DHT22;62824;52.994;-3.936;2023-04-03T10:00:27;15.50;27.30
74384;DHT22;62824;52.994;-3.936;2023-04-03T10:02:57;16.80;24.50
74384;DHT22;62824;52.994;-3.936;2023-04-03T10:05:38;16.90;22.90
74384;DHT22;62824;52.994;-3.936;2023-04-03T10:08:14;16.50;23.60
74384;DHT22;62824;52.994;-3.936;2023-04-03T10:10:47;17.30;23.80
74384;DHT22;62824;52.994;-3.936;2023-04-03T10:13:16;18.40;22.40
74384;DHT22;62824;52.994;-3.936;2023-04-03T10:16:01;18.60;21.10
74384;DHT22;62824;52.994;-3.936;2023-04-03T10:18:38;19.40;18.60
74384;DHT22;62824;52.994;-3.936;2023-04-03T10:21:15;20.10;18.90
74384;DHT22;62824;52.994;-3.936;2023-04-03T10:24:25;20.00;17.60
74384;DHT22;62824;52.994;-3.936;2023-04-03T10:27:09;18.40;17.70
74384;DHT22;62824;52.994;-3.936;2023-04-03T10:39:23;20.40;15.90
74384;DHT22;62824;52.994;-3.936;2023-04-03T10:42:07;20.10;15.40
74384;DHT22;62824;52.994;-3.936;2023-04-03T10:57:36;18.10;18.30
74384;DHT22;62824;52.994;-3.936;2023-04-03T11:00:07;19.60;17.40
74384;DHT22;62824;52.994;-3.936;2023-04-03T11:02:56;20.50;15.40
74384;DHT22;62824;52.994;-3.936;2023-04-03T11:08:02;20.30;14.20
74384;DHT22;62824;52.994;-3.936;2023-04-03T11:10:49;20.40;15.30
74384;DHT22;62824;52.994;-3.936;2023-04-03T11:13:44;21.40;12.90
74384;DHT22;62824;52.994;-3.936;2023-04-03T11:16:18;20.90;11.60
74384;DHT22;62824;52.994;-3.936;2023-04-03T11:18:52;21.50;12.10
74384;DHT22;62824;52.994;-3.936;2023-04-03T11:21:39;21.50;12.00
74384;DHT22;62824;52.994;-3.936;2023-04-03T11:24:16;21.80;11.20
74384;DHT22;62824;52.994;-3.936;2023-04-03T11:26:43;20.40;11.60
74384;DHT22;62824;52.994;-3.936;2023-04-03T11:29:19;20.50;13.10
74384;DHT22;62824;52.994;-3.936;2023-04-03T11:32:09;21.00;12.80
74384;DHT22;62824;52.994;-3.936;2023-04-03T11:34:42;20.60;12.40
74384;DHT22;62824;52.994;-3.936;2023-04-03T11:37:39;19.50;13.20
74384;DHT22;62824;52.994;-3.936;2023-04-03T11:42:52;19.60;13.40
74384;DHT22;62824;52.994;-3.936;2023-04-03T11:50:45;20.50;12.20
74384;DHT22;62824;52.994;-3.936;2023-04-03T11:55:44;22.40;10.70
74384;DHT22;62824;52.994;-3.936;2023-04-03T11:58:22;22.70;10.50
74384;DHT22;62824;52.994;-3.936;2023-04-03T12:01:04;21.40;9.60
74384;DHT22;62824;52.994;-3.936;2023-04-03T12:03:56;21.00;8.90
74384;DHT22;62824;52.994;-3.936;2023-04-03T12:09:26;22.50;7.50
74384;DHT22;62824;52.994;-3.936;2023-04-03T12:11:55;21.70;8.20
74384;DHT22;62824;52.994;-3.936;2023-04-03T12:14:23;20.90;9.40
74384;DHT22;62824;52.994;-3.936;2023-04-03T12:16:53;20.10;11.10
74384;DHT22;62824;52.994;-3.936;2023-04-03T12:19:38;21.30;10.40
74384;DHT22;62824;52.994;-3.936;2023-04-03T12:22:14;22.60;9.70
74384;DHT22;62824;52.994;-3.936;2023-04-03T12:24:47;23.20;8.20
74384;DHT22;62824;52.994;-3.936;2023-04-03T12:27:33;23.10;9.40
74384;DHT22;62824;52.994;-3.936;2023-04-03T12:35:47;21.40;6.80
74384;DHT22;62824;52.994;-3.936;2023-04-03T12:38:41;21.80;8.10
74384;DHT22;62824;52.994;-3.936;2023-04-03T12:46:52;20.70;9.10
74384;DHT22;62824;52.994;-3.936;2023-04-03T12:49:37;20.40;8.90
74384;DHT22;62824;52.994;-3.936;2023-04-03T12:52:17;20.50;10.40
74384;DHT22;62824;52.994;-3.936;2023-04-03T12:54:45;20.80;8.40
74384;DHT22;62824;52.994;-3.936;2023-04-03T12:57:43;20.10;9.00
74384;DHT22;62824;52.994;-3.936;2023-04-03T13:00:37;20.50;8.90
74384;DHT22;62824;52.994;-3.936;2023-04-03T13:03:06;21.50;9.10
74384;DHT22;62824;52.994;-3.936;2023-04-03T13:05:32;22.20;9.00
74384;DHT22;62824;52.994;-3.936;2023-04-03T13:08:02;22.20;7.00
74384;DHT22;62824;52.994;-3.936;2023-04-03T13:10:29;23.00;5.90
74384;DHT22;62824;52.994;-3.936;2023-04-03T13:13:08;23.00;6.80
74384;DHT22;62824;52.994;-3.936;2023-04-03T13:15:44;23.70;5.90
74384;DHT22;62824;52.994;-3.936;2023-04-03T13:21:15;23.10;6.10
74384;DHT22;62824;52.994;-3.936;2023-04-03T13:23:45;23.30;7.40
74384;DHT22;62824;52.994;-3.936;2023-04-03T13:26:12;23.20;7.00
74384;DHT22;62824;52.994;-3.936;2023-04-03T13:28:42;23.00;7.70
74384;DHT22;62824;52.994;-3.936;2023-04-03T13:31:22;23.40;6.60
74384;DHT22;62824;52.994;-3.936;2023-04-03T13:34:11;24.00;5.90
74384;DHT22;62824;52.994;-3.936;2023-04-03T13:36:53;23.80;3.90
74384;DHT22;62824;52.994;-3.936;2023-04-03T13:41:53;22.80;3.90
74384;DHT22;62824;52.994;-3.936;2023-04-03T13:46:49;22.10;5.90
74384;DHT22;62824;52.994;-3.936;2023-04-03T13:51:53;22.20;4.20
74384;DHT22;62824;52.994;-3.936;2023-04-03T13:54:39;22.40;4.40
74384;DHT22;62824;52.994;-3.936;2023-04-03T13:57:15;22.30;4.00
74384;DHT22;62824;52.994;-3.936;2023-04-03T14:03:24;23.00;5.30
74384;DHT22;62824;52.994;-3.936;2023-04-03T14:05:50;22.70;5.20
74384;DHT22;62824;52.994;-3.936;2023-04-03T14:08:17;22.10;5.20
74384;DHT22;62824;52.994;-3.936;2023-04-03T14:10:47;22.50;5.40
74384;DHT22;62824;52.994;-3.936;2023-04-03T14:13:19;22.50;4.30
74384;DHT22;62824;52.994;-3.936;2023-04-03T14:16:01;21.70;6.10
74384;DHT22;62824;52.994;-3.936;2023-04-03T14:18:27;21.30;5.80
74384;DHT22;62824;52.994;-3.936;2023-04-03T14:20:53;21.30;6.00
74384;DHT22;62824;52.994;-3.936;2023-04-03T14:23:18;21.70;6.70
74384;DHT22;62824;52.994;-3.936;2023-04-03T14:25:44;22.10;5.90
74384;DHT22;62824;52.994;-3.936;2023-04-03T14:28:19;22.50;6.30
74384;DHT22;62824;52.994;-3.936;2023-04-03T14:30:48;22.90;5.60
74384;DHT22;62824;52.994;-3.936;2023-04-03T14:33:18;22.60;6.50
74384;DHT22;62824;52.994;-3.936;2023-04-03T14:35:45;22.80;5.80
74384;DHT22;62824;52.994;-3.936;2023-04-03T14:38:30;22.90;6.40
74384;DHT22;62824;52.994;-3.936;2023-04-03T14:40:57;23.10;5.90
74384;DHT22;62824;52.994;-3.936;2023-04-03T14:43:23;23.10;5.90
74384;DHT22;62824;52.994;-3.936;2023-04-03T14:45:49;23.20;6.70
74384;DHT22;62824;52.994;-3.936;2023-04-03T14:48:21;23.00;6.70
74384;DHT22;62824;52.994;-3.936;2023-04-03T14:50:49;23.10;6.50
74384;DHT22;62824;52.994;-3.936;2023-04-03T14:53:17;23.20;6.90
74384;DHT22;62824;52.994;-3.936;2023-04-03T14:55:47;23.10;6.10
74384;DHT22;62824;52.994;-3.936;2023-04-03T14:58:19;22.90;7.00
74384;DHT22;62824;52.994;-3.936;2023-04-03T15:00:46;22.30;6.50
74384;DHT22;62824;52.994;-3.936;2023-04-03T15:03:17;21.90;7.40
74384;DHT22;62824;52.994;-3.936;2023-04-03T15:05:45;22.00;7.30
74384;DHT22;62824;52.994;-3.936;2023-04-03T15:08:21;22.00;7.30
74384;DHT22;62824;52.994;-3.936;2023-04-03T15:10:47;21.50;8.20
74384;DHT22;62824;52.994;-3.936;2023-04-03T15:13:13;21.60;8.30
74384;DHT22;62824;52.994;-3.936;2023-04-03T15:15:39;21.40;7.90
74384;DHT22;62824;52.994;-3.936;2023-04-03T15:18:05;20.80;8.80
74384;DHT22;62824;52.994;-3.936;2023-04-03T15:20:31;21.00;9.20
74384;DHT22;62824;52.994;-3.936;2023-04-03T15:23:00;20.90;9.10
74384;DHT22;62824;52.994;-3.936;2023-04-03T15:25:30;20.30;8.40
74384;DHT22;62824;52.994;-3.936;2023-04-03T15:28:00;19.50;10.20
74384;DHT22;62824;52.994;-3.936;2023-04-03T15:30:27;19.20;10.60
74384;DHT22;62824;52.994;-3.936;2023-04-03T15:32:52;19.50;11.50
74384;DHT22;62824;52.994;-3.936;2023-04-03T15:35:19;19.20;10.90
74384;DHT22;62824;52.994;-3.936;2023-04-03T15:37:46;19.40;11.50
74384;DHT22;62824;52.994;-3.936;2023-04-03T15:40:12;19.50;11.20
74384;DHT22;62824;52.994;-3.936;2023-04-03T15:42:38;19.60;10.70
74384;DHT22;62824;52.994;-3.936;2023-04-03T15:45:08;19.60;11.60
74384;DHT22;62824;52.994;-3.936;2023-04-03T15:47:35;19.60;10.50
74384;DHT22;62824;52.994;-3.936;2023-04-03T15:50:00;19.70;10.10
74384;DHT22;62824;52.994;-3.936;2023-04-03T15:52:26;19.80;10.10
74384;DHT22;62824;52.994;-3.936;2023-04-03T15:54:52;19.80;10.40
74384;DHT22;62824;52.994;-3.936;2023-04-03T15:57:18;19.90;10.50
74384;DHT22;62824;52.994;-3.936;2023-04-03T15:59:45;19.60;10.70
74384;DHT22;62824;52.994;-3.936;2023-04-03T16:02:12;19.10;10.70
74384;DHT22;62824;52.994;-3.936;2023-04-03T16:04:38;19.00;11.10
74384;DHT22;62824;52.994;-3.936;2023-04-03T16:07:05;19.10;12.20
74384;DHT22;62824;52.994;-3.936;2023-04-03T16:09:32;19.10;11.90
74384;DHT22;62824;52.994;-3.936;2023-04-03T16:11:59;19.10;11.90
74384;DHT22;62824;52.994;-3.936;2023-04-03T16:14:26;18.90;12.10
74384;DHT22;62824;52.994;-3.936;2023-04-03T16:16:53;18.80;11.80
74384;DHT22;62824;52.994;-3.936;2023-04-03T16:19:19;18.70;12.20
74384;DHT22;62824;52.994;-3.936;2023-04-03T16:21:45;18.60;12.40
74384;DHT22;62824;52.994;-3.936;2023-04-03T16:24:12;18.60;12.20
74384;DHT22;62824;52.994;-3.936;2023-04-03T16:26:38;18.40;12.50
74384;DHT22;62824;52.994;-3.936;2023-04-03T16:29:04;18.40;12.70
74384;DHT22;62824;52.994;-3.936;2023-04-03T16:31:32;18.50;13.50
74384;DHT22;62824;52.994;-3.936;2023-04-03T16:33:58;18.50;13.60
74384;DHT22;62824;52.994;-3.936;2023-04-03T16:36:25;18.20;14.10
74384;DHT22;62824;52.994;-3.936;2023-04-03T16:38:51;18.30;14.60
74384;DHT22;62824;52.994;-3.936;2023-04-03T16:41:17;18.20;14.30
74384;DHT22;62824;52.994;-3.936;2023-04-03T16:43:43;18.00;14.30
74384;DHT22;62824;52.994;-3.936;2023-04-03T16:46:09;18.00;14.60
74384;DHT22;62824;52.994;-3.936;2023-04-03T16:48:35;17.90;14.70
74384;DHT22;62824;52.994;-3.936;2023-04-03T16:51:01;17.80;15.30
74384;DHT22;62824;52.994;-3.936;2023-04-03T16:53:27;17.90;15.30
74384;DHT22;62824;52.994;-3.936;2023-04-03T16:55:53;18.00;15.80
74384;DHT22;62824;52.994;-3.936;2023-04-03T17:01:39;17.80;15.80
74384;DHT22;62824;52.994;-3.936;2023-04-03T17:04:05;17.40;17.10
74384;DHT22;62824;52.994;-3.936;2023-04-03T17:06:31;17.20;17.60
74384;DHT22;62824;52.994;-3.936;2023-04-03T17:08:57;17.10;18.30
74384;DHT22;62824;52.994;-3.936;2023-04-03T17:11:30;17.00;17.90
74384;DHT22;62824;52.994;-3.936;2023-04-03T17:13:56;17.00;18.50
74384;DHT22;62824;52.994;-3.936;2023-04-03T17:16:22;16.80;18.30
74384;DHT22;62824;52.994;-3.936;2023-04-03T17:18:48;16.40;18.10
74384;DHT22;62824;52.994;-3.936;2023-04-03T17:21:15;16.30;18.70
74384;DHT22;62824;52.994;-3.936;2023-04-03T17:23:44;15.60;19.60
74384;DHT22;62824;52.994;-3.936;2023-04-03T17:26:10;15.70;20.40
74384;DHT22;62824;52.994;-3.936;2023-04-03T17:28:36;15.60;20.70
74384;DHT22;62824;52.994;-3.936;2023-04-03T17:31:02;15.10;21.00
74384;DHT22;62824;52.994;-3.936;2023-04-03T17:33:28;15.00;21.10
74384;DHT22;62824;52.994;-3.936;2023-04-03T17:35:58;15.20;20.90
74384;DHT22;62824;52.994;-3.936;2023-04-03T17:38:26;15.20;20.80
74384;DHT22;62824;52.994;-3.936;2023-04-03T17:40:56;15.00;20.70
74384;DHT22;62824;52.994;-3.936;2023-04-03T17:43:23;14.80;20.80
74384;DHT22;62824;52.994;-3.936;2023-04-03T17:45:49;14.80;21.70